createdAt,value
2018-04-30T00:01:36.454Z,18.11
2018-04-30T00:04:05.503Z,18.14
2018-04-30T00:06:34.551Z,18.03
2018-04-30T00:11:39.415Z,18.08
2018-04-30T00:14:09.772Z,17.86
2018-04-30T00:16:38.871Z,17.75
2018-04-30T00:24:20.354Z,17.91
2018-04-30T00:26:49.754Z,17.90
2018-04-30T00:31:54.768Z,17.77
2018-04-30T00:34:23.831Z,17.66
2018-04-30T00:36:52.882Z,17.53
2018-04-30T00:39:21.938Z,17.07
2018-04-30T00:41:50.993Z,16.69
2018-04-30T00:46:55.791Z,16.65
2018-04-30T00:49:24.830Z,16.46
2018-04-30T00:51:53.954Z,16.29
2018-04-30T00:54:40.686Z,16.24
2018-04-30T00:57:09.761Z,16.08
2018-04-30T00:59:38.867Z,15.94
2018-04-30T01:04:43.719Z,15.99
2018-04-30T01:07:12.786Z,16.04
2018-04-30T01:09:41.865Z,15.92
2018-04-30T01:12:11.989Z,15.94
2018-04-30T01:14:41.535Z,16.21
2018-04-30T01:17:10.609Z,16.22
2018-04-30T01:19:39.679Z,16.31
2018-04-30T01:22:08.767Z,16.45
2018-04-30T01:24:38.143Z,16.62
2018-04-30T01:27:07.174Z,16.71
2018-04-30T01:29:36.280Z,16.46
2018-04-30T01:34:40.994Z,16.08
2018-04-30T01:37:11.036Z,16.06
2018-04-30T01:42:15.949Z,15.84
2018-04-30T01:47:20.722Z,15.79
2018-04-30T01:49:49.992Z,15.64
2018-04-30T01:52:19.024Z,15.70
2018-04-30T01:54:48.106Z,15.68
2018-04-30T01:57:17.491Z,15.55
2018-04-30T01:59:46.719Z,15.35
2018-04-30T02:02:16.723Z,15.33
2018-04-30T02:04:47.779Z,15.35
2018-04-30T02:07:16.842Z,15.45
2018-04-30T02:09:45.884Z,15.62
2018-04-30T02:12:15.013Z,15.75
2018-04-30T02:17:19.883Z,15.90
2018-04-30T02:19:49.117Z,15.87
2018-04-30T02:22:18.153Z,15.71
2018-04-30T02:24:47.293Z,15.58
2018-04-30T02:27:16.562Z,15.56
2018-04-30T02:29:45.626Z,15.62
2018-04-30T02:34:50.402Z,15.46
2018-04-30T02:37:19.450Z,15.53
2018-04-30T02:39:48.503Z,15.46
2018-04-30T02:42:17.650Z,15.48
2018-04-30T02:44:46.686Z,15.52
2018-04-30T02:47:15.752Z,15.55
2018-04-30T02:49:44.873Z,15.39
2018-04-30T02:52:13.921Z,15.73
2018-04-30T02:54:42.973Z,16.15
2018-04-30T02:59:48.668Z,16.37
2018-04-30T03:02:17.764Z,16.48
2018-04-30T03:04:47.743Z,16.58
2018-04-30T03:07:17.854Z,16.63
2018-04-30T03:09:47.036Z,16.10
2018-04-30T03:12:15.975Z,15.79
2018-04-30T03:14:45.041Z,15.77
2018-04-30T03:17:14.204Z,15.68
2018-04-30T03:19:44.202Z,15.57
2018-04-30T03:22:14.137Z,15.18
2018-04-30T03:24:43.194Z,15.06
2018-04-30T03:27:12.435Z,14.99
2018-04-30T03:32:17.191Z,15.10
2018-04-30T03:34:46.358Z,15.18
2018-04-30T03:37:15.402Z,15.13
2018-04-30T03:39:44.643Z,15.33
2018-04-30T03:42:13.782Z,15.31
2018-04-30T03:44:42.842Z,15.30
2018-04-30T03:47:11.903Z,15.26
2018-04-30T03:49:41.012Z,15.11
2018-04-30T03:54:47.259Z,14.75
2018-04-30T03:59:52.027Z,14.50
2018-04-30T04:02:38.690Z,14.27
2018-04-30T04:05:25.530Z,14.18
2018-04-30T04:07:55.706Z,14.09
2018-04-30T04:10:24.773Z,13.91
2018-04-30T04:12:53.836Z,13.75
2018-04-30T04:15:22.929Z,13.64
2018-04-30T04:20:27.724Z,13.27
2018-04-30T04:25:32.551Z,13.03
2018-04-30T04:30:37.795Z,12.89
2018-04-30T04:33:07.006Z,12.79
2018-04-30T04:35:36.053Z,12.67
2018-04-30T04:38:07.054Z,12.58
2018-04-30T04:40:36.406Z,12.31
2018-04-30T04:43:05.570Z,12.23
2018-04-30T04:45:34.619Z,12.12
2018-04-30T04:48:03.675Z,12.08
2018-04-30T04:50:33.068Z,12.02
2018-04-30T04:53:02.324Z,11.99
2018-04-30T04:55:31.366Z,11.94
2018-04-30T04:58:00.433Z,11.96
2018-04-30T05:00:29.717Z,11.86
2018-04-30T05:02:58.769Z,11.65
2018-04-30T05:05:27.817Z,11.65
2018-04-30T05:07:57.132Z,11.58
2018-04-30T05:10:26.186Z,11.50
2018-04-30T05:12:55.229Z,11.47
2018-04-30T05:15:24.323Z,11.36
2018-04-30T05:17:54.438Z,11.31
2018-04-30T05:20:23.761Z,11.28
2018-04-30T05:22:52.842Z,11.25
2018-04-30T05:25:22.684Z,11.27
2018-04-30T05:27:51.832Z,11.10
2018-04-30T05:30:20.911Z,11.17
2018-04-30T05:35:25.754Z,11.30
2018-04-30T05:37:55.322Z,11.18
2018-04-30T05:40:24.410Z,11.28
2018-04-30T05:42:53.551Z,11.19
2018-04-30T05:45:22.614Z,11.13
2018-04-30T05:47:51.666Z,11.14
2018-04-30T05:50:21.010Z,11.17
2018-04-30T05:52:50.064Z,11.12
2018-04-30T05:55:19.207Z,11.17
2018-04-30T05:57:49.365Z,10.99
2018-04-30T06:00:18.401Z,11.01
2018-04-30T06:02:47.464Z,10.92
2018-04-30T06:05:16.855Z,10.74
2018-04-30T06:07:45.901Z,10.35
2018-04-30T06:10:14.934Z,10.05
2018-04-30T06:12:44.404Z,9.81
2018-04-30T06:15:13.447Z,9.73
2018-04-30T06:17:43.838Z,9.61
2018-04-30T06:20:13.404Z,9.42
2018-04-30T06:22:42.441Z,9.34
2018-04-30T06:25:11.925Z,9.22
2018-04-30T06:27:40.967Z,9.15
2018-04-30T06:30:10.033Z,9.04
2018-04-30T06:32:39.584Z,8.86
2018-04-30T06:35:08.659Z,8.83
2018-04-30T06:37:37.702Z,8.93
2018-04-30T06:40:07.032Z,9.09
2018-04-30T06:42:37.103Z,9.10
2018-04-30T06:45:06.147Z,9.26
2018-04-30T06:47:35.228Z,9.31
2018-04-30T06:52:40.396Z,9.56
2018-04-30T06:55:09.437Z,9.63
2018-04-30T06:57:38.475Z,9.81
2018-04-30T07:00:07.529Z,9.83
2018-04-30T07:02:36.557Z,9.82
2018-04-30T07:05:06.619Z,9.66
2018-04-30T07:07:35.661Z,9.74
2018-04-30T07:12:40.457Z,9.86
2018-04-30T07:15:10.072Z,9.88
2018-04-30T07:17:39.100Z,10.24
2018-04-30T07:20:08.333Z,10.30
2018-04-30T07:22:37.363Z,10.69
2018-04-30T07:25:06.411Z,10.61
2018-04-30T07:27:35.704Z,11.00
2018-04-30T07:30:04.756Z,10.96
2018-04-30T07:32:34.610Z,10.94
2018-04-30T07:35:03.645Z,10.86
2018-04-30T07:37:33.213Z,11.11
2018-04-30T07:40:02.323Z,11.81
2018-04-30T07:42:32.003Z,11.89
2018-04-30T07:47:36.766Z,12.43
2018-04-30T07:50:06.434Z,12.98
2018-04-30T07:52:35.474Z,12.55
2018-04-30T07:55:04.617Z,12.32
2018-04-30T07:57:34.301Z,12.43
2018-04-30T08:00:03.370Z,12.65
2018-04-30T08:02:32.437Z,12.90
2018-04-30T08:05:02.451Z,13.26
2018-04-30T08:07:33.491Z,13.25
2018-04-30T08:10:02.505Z,13.71
2018-04-30T08:12:31.839Z,13.84
2018-04-30T08:15:00.904Z,13.83
2018-04-30T08:17:30.462Z,13.85
2018-04-30T08:19:59.515Z,13.46
2018-04-30T08:22:28.563Z,13.38
2018-04-30T08:24:57.761Z,13.19
2018-04-30T08:27:26.803Z,13.27
2018-04-30T08:29:55.882Z,13.61
2018-04-30T08:32:24.940Z,13.79
2018-04-30T08:34:53.981Z,13.85
2018-04-30T08:37:23.021Z,14.07
2018-04-30T08:39:52.074Z,14.27
2018-04-30T08:42:21.123Z,14.37
2018-04-30T08:44:55.379Z,14.22
2018-04-30T08:47:25.915Z,14.23
2018-04-30T08:49:55.043Z,14.69
2018-04-30T08:52:25.151Z,14.77
2018-04-30T08:54:54.193Z,15.60
2018-04-30T09:00:00.029Z,15.66
2018-04-30T09:02:29.074Z,15.87
2018-04-30T09:04:58.139Z,15.95
2018-04-30T09:07:27.580Z,16.66
2018-04-30T09:09:56.713Z,16.90
2018-04-30T09:12:26.485Z,17.91
2018-04-30T09:14:55.623Z,19.05
2018-04-30T09:17:25.649Z,18.90
2018-04-30T09:19:54.678Z,19.83
2018-04-30T09:25:00.927Z,20.54
2018-04-30T09:30:09.567Z,20.44
2018-04-30T09:32:38.621Z,19.74
2018-04-30T09:35:07.660Z,19.79
2018-04-30T09:40:14.050Z,17.60
2018-04-30T09:45:19.390Z,17.56
2018-04-30T09:47:48.421Z,17.66
2018-04-30T09:50:18.279Z,20.45
2018-04-30T09:52:47.330Z,19.24
2018-04-30T09:57:52.356Z,20.55
2018-04-30T10:02:57.066Z,21.10
2018-04-30T10:05:26.214Z,21.88
2018-04-30T10:07:55.310Z,20.02
2018-04-30T10:10:24.647Z,19.95
2018-04-30T10:12:54.350Z,18.84
2018-04-30T10:15:23.378Z,18.61
2018-04-30T10:17:52.705Z,20.25
2018-04-30T10:20:21.771Z,22.53
2018-04-30T10:22:51.246Z,23.57
2018-04-30T10:27:56.050Z,21.96
2018-04-30T10:30:25.107Z,22.09
2018-04-30T10:32:54.263Z,22.60
2018-04-30T10:35:23.307Z,22.83
2018-04-30T10:37:53.432Z,22.84
2018-04-30T10:42:59.229Z,23.81
2018-04-30T10:45:28.254Z,24.09
2018-04-30T10:47:57.349Z,26.96
2018-04-30T10:50:26.412Z,29.30
2018-04-30T10:52:56.194Z,26.96
2018-04-30T10:58:01.901Z,29.99
2018-04-30T11:00:31.926Z,30.66
2018-04-30T11:03:01.116Z,31.11
2018-04-30T11:05:30.162Z,30.66
2018-04-30T11:07:59.269Z,29.74
2018-04-30T11:10:28.317Z,28.22
2018-04-30T11:12:57.786Z,26.59
2018-04-30T11:15:26.842Z,26.90
2018-04-30T11:17:55.881Z,23.92
2018-04-30T11:20:25.657Z,23.54
2018-04-30T11:22:54.715Z,23.67
2018-04-30T11:25:23.774Z,23.81
2018-04-30T11:27:54.074Z,22.40
2018-04-30T11:30:23.113Z,24.13
2018-04-30T11:32:53.296Z,25.64
2018-04-30T11:35:22.349Z,26.01
2018-04-30T11:37:51.947Z,27.73
2018-04-30T11:40:20.998Z,26.64
2018-04-30T11:42:50.202Z,24.46
2018-04-30T11:47:55.610Z,21.34
2018-04-30T11:50:24.670Z,21.14
2018-04-30T11:52:53.959Z,21.24
2018-04-30T11:55:23.019Z,25.38
2018-04-30T11:57:52.065Z,27.47
2018-04-30T12:02:56.990Z,32.77
2018-04-30T12:08:02.298Z,31.59
2018-04-30T12:10:31.702Z,29.07
2018-04-30T12:13:00.774Z,28.76
2018-04-30T12:15:30.449Z,30.90
2018-04-30T12:17:59.491Z,32.25
2018-04-30T12:20:28.550Z,32.37
2018-04-30T12:22:57.779Z,31.76
2018-04-30T12:25:26.897Z,33.97
2018-04-30T12:27:56.157Z,33.68
2018-04-30T12:30:25.223Z,35.03
2018-04-30T12:32:54.657Z,36.77
2018-04-30T12:35:23.875Z,36.18
2018-04-30T12:37:52.958Z,36.69
2018-04-30T12:40:22.346Z,37.18
2018-04-30T12:42:51.704Z,37.70
2018-04-30T12:45:20.761Z,36.17
2018-04-30T12:47:50.075Z,34.93
2018-04-30T12:50:19.122Z,35.45
2018-04-30T12:52:48.181Z,36.15
2018-04-30T12:55:21.671Z,33.97
2018-04-30T12:57:50.919Z,35.03
2018-04-30T13:00:19.981Z,36.73
2018-04-30T13:02:49.038Z,37.22
2018-04-30T13:07:54.614Z,34.97
2018-04-30T13:10:23.808Z,29.39
2018-04-30T13:12:52.881Z,26.63
2018-04-30T13:17:57.771Z,25.62
2018-04-30T13:20:26.835Z,26.91
2018-04-30T13:22:55.887Z,27.13
2018-04-30T13:25:24.945Z,30.25
2018-04-30T13:27:54.018Z,30.20
2018-04-30T13:32:59.490Z,29.02
2018-04-30T13:38:04.908Z,31.83
2018-04-30T13:40:33.958Z,30.27
2018-04-30T13:43:03.500Z,30.07
2018-04-30T13:45:33.222Z,27.95
2018-04-30T13:48:02.278Z,27.24
2018-04-30T13:50:31.334Z,25.91
2018-04-30T13:53:00.395Z,27.04
2018-04-30T13:55:33.804Z,29.08
2018-04-30T13:58:02.970Z,28.72
2018-04-30T14:00:32.003Z,28.24
2018-04-30T14:03:01.606Z,28.07
2018-04-30T14:05:30.658Z,26.85
2018-04-30T14:07:59.720Z,26.86
2018-04-30T14:10:28.781Z,27.94
2018-04-30T14:12:58.354Z,27.45
2018-04-30T14:15:27.407Z,28.17
2018-04-30T14:17:56.874Z,28.13
2018-04-30T14:20:25.956Z,27.87
2018-04-30T14:22:54.987Z,31.66
2018-04-30T14:25:24.324Z,32.12
2018-04-30T14:27:53.354Z,32.02
2018-04-30T14:30:22.687Z,31.18
2018-04-30T14:32:51.815Z,31.41
2018-04-30T14:35:21.505Z,29.47
2018-04-30T14:37:50.541Z,30.73
2018-04-30T14:40:19.593Z,31.54
2018-04-30T14:42:49.000Z,31.11
2018-04-30T14:45:18.068Z,28.22
2018-04-30T14:47:47.173Z,27.63
2018-04-30T14:50:16.224Z,25.79
2018-04-30T14:55:21.270Z,27.13
2018-04-30T14:57:50.734Z,26.19
2018-04-30T15:00:19.804Z,25.87
2018-04-30T15:02:48.834Z,24.18
2018-04-30T15:05:18.635Z,24.23
2018-04-30T15:07:47.679Z,23.42
2018-04-30T15:10:16.743Z,23.32
2018-04-30T15:12:45.962Z,22.74
2018-04-30T15:15:15.017Z,22.04
2018-04-30T15:17:44.373Z,22.46
2018-04-30T15:20:13.420Z,22.58
2018-04-30T15:22:42.506Z,22.77
2018-04-30T15:25:13.009Z,22.70
2018-04-30T15:27:42.090Z,23.33
2018-04-30T15:30:11.152Z,23.16
2018-04-30T15:35:16.404Z,24.09
2018-04-30T15:37:45.910Z,24.36
2018-04-30T15:40:14.992Z,23.94
2018-04-30T15:42:44.022Z,23.25
2018-04-30T15:47:49.284Z,22.76
2018-04-30T15:50:18.337Z,22.70
2018-04-30T15:52:48.234Z,22.24
2018-04-30T15:55:17.290Z,21.42
2018-04-30T15:57:46.594Z,21.18
2018-04-30T16:00:15.653Z,20.98
2018-04-30T16:02:44.979Z,20.91
2018-04-30T16:05:14.013Z,20.93
2018-04-30T16:10:19.910Z,20.99
2018-04-30T16:12:50.093Z,21.03
2018-04-30T16:15:19.149Z,20.71
2018-04-30T16:17:48.197Z,20.45
2018-04-30T16:20:17.612Z,20.47
2018-04-30T16:22:46.665Z,20.32
2018-04-30T16:25:15.722Z,20.22
2018-04-30T16:27:45.309Z,19.86
2018-04-30T16:30:15.410Z,19.54
2018-04-30T16:32:44.596Z,19.45
2018-04-30T16:35:13.909Z,19.26
2018-04-30T16:37:42.934Z,19.15
2018-04-30T16:40:12.505Z,18.72
2018-04-30T16:42:41.541Z,18.42
2018-04-30T16:45:10.627Z,17.98
2018-04-30T16:50:15.398Z,17.60
2018-04-30T16:52:44.458Z,17.23
2018-04-30T16:55:13.643Z,17.02
2018-04-30T16:57:43.830Z,17.19
2018-04-30T17:00:12.877Z,17.27
2018-04-30T17:02:41.977Z,16.98
2018-04-30T17:05:11.168Z,17.10
2018-04-30T17:07:40.234Z,17.14
2018-04-30T17:10:09.341Z,16.43
2018-04-30T17:12:38.685Z,15.79
2018-04-30T17:15:07.761Z,15.65
2018-04-30T17:17:36.913Z,15.55
2018-04-30T17:20:05.952Z,15.58
2018-04-30T17:26:36.905Z,15.28
2018-04-30T17:29:06.298Z,15.34
2018-04-30T17:31:35.382Z,15.41
2018-04-30T17:34:04.456Z,15.46
2018-04-30T17:36:33.615Z,15.32
2018-04-30T17:39:02.791Z,15.29
2018-04-30T17:41:31.853Z,14.94
2018-04-30T17:44:00.896Z,14.95
2018-04-30T17:46:30.589Z,14.49
2018-04-30T17:48:59.642Z,14.49
2018-04-30T17:54:04.442Z,14.46
2018-04-30T17:56:33.497Z,14.38
2018-04-30T17:59:02.567Z,14.46
2018-04-30T18:01:31.634Z,14.63
2018-04-30T18:04:00.843Z,14.19
2018-04-30T18:06:29.877Z,13.97
2018-04-30T18:08:58.930Z,14.05
2018-04-30T18:14:27.607Z,13.30
2018-04-30T18:16:57.571Z,13.13
2018-04-30T18:19:26.651Z,12.85
2018-04-30T18:21:55.886Z,12.78
2018-04-30T18:24:24.964Z,12.66
2018-04-30T18:26:54.068Z,12.67
2018-04-30T18:29:23.146Z,12.55
2018-04-30T18:31:52.199Z,12.50
2018-04-30T18:34:21.262Z,12.51
2018-04-30T18:36:50.306Z,12.31
2018-04-30T18:41:55.095Z,12.41
2018-04-30T18:44:24.176Z,12.29
2018-04-30T18:46:53.194Z,12.21
2018-04-30T18:51:58.042Z,12.39
2018-04-30T18:54:27.085Z,12.55
2018-04-30T18:56:56.129Z,12.39
2018-04-30T18:59:25.218Z,12.47
2018-04-30T19:01:54.266Z,12.33
2018-04-30T19:04:23.322Z,12.26
2018-04-30T19:06:52.422Z,12.21
2018-04-30T19:09:21.481Z,12.15
2018-04-30T19:11:50.535Z,12.03
2018-04-30T19:14:19.683Z,12.01
2018-04-30T19:16:48.672Z,11.94
2018-04-30T19:19:17.718Z,11.83
2018-04-30T19:21:46.908Z,11.80
2018-04-30T19:24:16.967Z,11.82
2018-04-30T19:26:46.024Z,11.85
2018-04-30T19:31:50.794Z,12.01
2018-04-30T19:34:20.762Z,12.07
2018-04-30T19:36:49.815Z,11.91
2018-04-30T19:39:19.797Z,11.90
2018-04-30T19:41:49.103Z,11.75
2018-04-30T19:44:18.165Z,11.66
2018-04-30T19:46:47.259Z,11.61
2018-04-30T19:49:16.296Z,11.59
2018-04-30T19:51:45.593Z,11.29
2018-04-30T19:54:14.659Z,11.09
2018-04-30T19:59:20.916Z,11.22
2018-04-30T20:01:50.348Z,11.16
2018-04-30T20:04:19.641Z,10.87
2018-04-30T20:06:48.694Z,11.01
2018-04-30T20:09:18.033Z,11.08
2018-04-30T20:11:47.739Z,11.10
2018-04-30T20:14:16.840Z,11.08
2018-04-30T20:21:57.385Z,11.44
2018-04-30T20:24:26.426Z,11.62
2018-04-30T20:29:31.238Z,11.75
2018-04-30T20:32:00.476Z,11.98
2018-04-30T20:34:29.822Z,11.88
2018-04-30T20:36:59.151Z,11.86
2018-04-30T20:39:29.554Z,11.85
2018-04-30T20:41:58.751Z,11.55
2018-04-30T20:44:28.168Z,11.47
2018-04-30T20:49:32.994Z,11.48
2018-04-30T20:52:02.291Z,11.35
2018-04-30T20:54:31.538Z,11.19
2018-04-30T20:57:00.995Z,11.12
2018-04-30T21:02:06.094Z,11.15
2018-04-30T21:04:35.807Z,11.21
2018-04-30T21:07:05.933Z,11.24
2018-04-30T21:12:11.436Z,11.34
2018-04-30T21:14:42.305Z,11.47
2018-04-30T21:17:11.684Z,11.43
2018-04-30T21:19:41.317Z,11.38
2018-04-30T21:22:10.709Z,11.41
2018-04-30T21:24:40.199Z,11.42
2018-04-30T21:27:10.521Z,11.30
2018-04-30T21:29:39.782Z,11.35
2018-04-30T21:32:09.637Z,11.30
2018-04-30T21:34:39.163Z,11.30
2018-04-30T21:37:09.333Z,11.30
2018-04-30T21:39:39.182Z,11.37
2018-04-30T21:42:08.342Z,11.42
2018-04-30T21:44:38.646Z,11.26
2018-04-30T21:47:08.368Z,11.22
2018-04-30T21:49:39.320Z,11.21
2018-04-30T21:52:08.414Z,11.22
2018-04-30T21:54:40.223Z,11.22
2018-04-30T21:57:17.398Z,11.29
2018-04-30T21:59:57.679Z,11.35
2018-04-30T22:02:39.065Z,11.36
2018-04-30T22:05:15.258Z,11.37
2018-04-30T22:07:58.335Z,11.38
2018-04-30T22:10:28.233Z,11.33
2018-04-30T22:18:08.810Z,11.54
2018-04-30T22:23:13.610Z,11.57
2018-04-30T22:25:42.669Z,11.47
2018-04-30T22:28:11.724Z,11.31
2018-04-30T22:30:40.813Z,11.50
2018-04-30T22:33:09.854Z,11.34
2018-04-30T22:35:38.958Z,11.38
2018-04-30T22:38:08.027Z,11.37
2018-04-30T22:40:37.309Z,11.21
2018-04-30T22:43:06.407Z,11.11
2018-04-30T22:48:11.085Z,11.23
2018-04-30T22:50:40.118Z,11.36
2018-04-30T22:53:09.156Z,11.25
2018-04-30T22:58:14.464Z,11.32
2018-04-30T23:03:19.201Z,11.27
2018-04-30T23:05:48.401Z,11.40
2018-04-30T23:08:17.475Z,11.25
2018-04-30T23:10:46.532Z,11.14
2018-04-30T23:13:15.563Z,11.07
2018-04-30T23:15:44.756Z,10.94
2018-04-30T23:18:14.048Z,10.81
2018-04-30T23:23:19.141Z,10.93
2018-04-30T23:25:48.260Z,10.97
2018-04-30T23:28:17.512Z,10.71
2018-04-30T23:30:46.692Z,10.50
2018-04-30T23:33:15.716Z,10.40
2018-04-30T23:35:44.783Z,10.32
2018-04-30T23:38:14.023Z,10.19
2018-04-30T23:40:43.143Z,10.06
2018-04-30T23:43:12.199Z,9.90
2018-04-30T23:45:41.313Z,9.94
2018-04-30T23:48:10.511Z,9.77
2018-04-30T23:50:39.522Z,9.87
2018-04-30T23:53:08.649Z,9.87
2018-04-30T23:55:37.777Z,9.75
2018-04-30T23:58:06.885Z,9.63
